createdAt,value
2023-03-31T00:01:29.733Z,0.80
2023-03-31T00:04:06.768Z,1.00
2023-03-31T00:06:38.373Z,0.70
2023-03-31T00:09:07.019Z,0.63
2023-03-31T00:11:34.089Z,0.60
2023-03-31T00:14:01.399Z,0.80
2023-03-31T00:16:28.517Z,0.70
2023-03-31T00:18:55.628Z,0.80
2023-03-31T00:21:33.903Z,0.50
2023-03-31T00:24:02.913Z,1.00
2023-03-31T00:26:30.564Z,0.90
2023-03-31T00:28:58.341Z,1.20
2023-03-31T00:31:27.480Z,0.60
2023-03-31T00:33:54.989Z,0.57
2023-03-31T00:36:27.158Z,0.70
2023-03-31T00:39:09.295Z,0.70
2023-03-31T00:41:37.627Z,0.70
2023-03-31T00:44:08.486Z,0.63
2023-03-31T00:46:41.058Z,0.80
2023-03-31T00:49:09.842Z,0.87
2023-03-31T00:51:38.334Z,0.90
2023-03-31T00:54:08.431Z,0.90
2023-03-31T00:56:38.192Z,0.70
2023-03-31T00:59:08.086Z,1.00
2023-03-31T01:01:35.937Z,0.87
2023-03-31T01:04:05.005Z,0.90
2023-03-31T01:06:33.261Z,0.90
2023-03-31T01:09:03.629Z,1.10
2023-03-31T01:11:31.661Z,1.20
2023-03-31T01:13:58.826Z,1.17
2023-03-31T01:16:26.037Z,1.17
2023-03-31T01:18:53.225Z,1.00
2023-03-31T01:21:38.505Z,1.27
2023-03-31T01:24:14.558Z,1.20
2023-03-31T01:27:00.166Z,0.90
2023-03-31T01:29:27.606Z,0.90
2023-03-31T01:32:10.392Z,0.97
2023-03-31T01:34:48.629Z,0.77
2023-03-31T01:37:34.530Z,0.83
2023-03-31T01:40:13.308Z,0.80
2023-03-31T01:42:46.197Z,1.07
2023-03-31T01:45:31.383Z,0.90
2023-03-31T01:48:00.436Z,0.93
2023-03-31T01:50:30.746Z,0.80
2023-03-31T01:53:12.167Z,0.70
2023-03-31T01:55:45.456Z,1.00
2023-03-31T01:58:12.548Z,0.67
2023-03-31T02:00:42.737Z,1.10
2023-03-31T02:03:17.734Z,1.00
2023-03-31T02:05:48.160Z,0.90
2023-03-31T02:08:23.078Z,0.60
2023-03-31T02:10:51.438Z,0.87
2023-03-31T02:13:19.569Z,0.63
2023-03-31T02:15:47.810Z,0.83
2023-03-31T02:18:18.552Z,1.03
2023-03-31T02:20:47.528Z,0.67
2023-03-31T02:23:16.060Z,0.80
2023-03-31T02:25:48.067Z,1.03
2023-03-31T02:28:19.039Z,0.60
2023-03-31T02:30:46.135Z,0.80
2023-03-31T02:33:13.196Z,0.70
2023-03-31T02:35:40.440Z,0.73
2023-03-31T02:38:08.396Z,0.97
2023-03-31T02:40:35.731Z,0.93
2023-03-31T02:43:03.021Z,0.80
2023-03-31T02:45:49.891Z,0.80
2023-03-31T02:48:19.470Z,0.60
2023-03-31T02:50:56.648Z,0.80
2023-03-31T02:53:42.564Z,0.60
2023-03-31T02:56:16.477Z,0.60
2023-03-31T02:59:12.780Z,0.60
2023-03-31T03:02:08.342Z,0.80
2023-03-31T03:04:41.746Z,0.73
2023-03-31T03:07:10.200Z,0.60
2023-03-31T03:09:49.939Z,0.60
2023-03-31T03:12:21.504Z,0.90
2023-03-31T03:14:48.755Z,0.70
2023-03-31T03:17:19.503Z,0.87
2023-03-31T03:19:51.601Z,0.90
2023-03-31T03:22:18.749Z,0.87
2023-03-31T03:24:45.868Z,0.73
2023-03-31T03:27:12.948Z,0.93
2023-03-31T03:29:41.640Z,0.73
2023-03-31T03:32:09.334Z,0.90
2023-03-31T03:34:36.568Z,0.80
2023-03-31T03:37:03.708Z,0.57
2023-03-31T03:39:30.924Z,0.80
2023-03-31T03:41:57.984Z,0.60
2023-03-31T03:44:25.127Z,0.80
2023-03-31T03:46:52.220Z,0.70
2023-03-31T03:49:20.385Z,0.73
2023-03-31T03:51:47.550Z,0.60
2023-03-31T03:54:14.765Z,0.80
2023-03-31T03:56:42.008Z,0.70
2023-03-31T03:59:09.125Z,0.80
2023-03-31T04:01:37.161Z,0.70
2023-03-31T04:04:04.563Z,0.93
2023-03-31T04:06:31.774Z,1.20
2023-03-31T04:08:58.837Z,0.53
2023-03-31T04:11:26.209Z,0.80
2023-03-31T04:13:53.393Z,0.70
2023-03-31T04:16:20.540Z,0.90
2023-03-31T04:18:48.659Z,0.63
2023-03-31T04:21:22.925Z,0.70
2023-03-31T04:23:58.580Z,0.67
2023-03-31T04:26:31.114Z,0.80
2023-03-31T04:29:00.254Z,0.80
2023-03-31T04:31:30.720Z,0.80
2023-03-31T04:34:02.440Z,0.60
2023-03-31T04:36:31.450Z,0.70
2023-03-31T04:38:58.646Z,0.90
2023-03-31T04:41:27.598Z,0.60
2023-03-31T04:43:54.832Z,0.97
2023-03-31T04:46:22.514Z,1.00
2023-03-31T04:48:49.690Z,1.03
2023-03-31T04:51:16.810Z,0.80
2023-03-31T04:53:43.951Z,0.80
2023-03-31T04:56:11.190Z,0.70
2023-03-31T04:58:38.611Z,1.07
2023-03-31T05:01:06.458Z,0.90
2023-03-31T05:03:33.985Z,0.90
2023-03-31T05:06:01.548Z,0.87
2023-03-31T05:08:28.699Z,0.70
2023-03-31T05:10:55.886Z,0.93
2023-03-31T05:13:23.153Z,1.03
2023-03-31T05:15:51.561Z,0.87
2023-03-31T05:18:19.187Z,0.80
2023-03-31T05:20:46.478Z,1.00
2023-03-31T05:23:13.788Z,1.00
2023-03-31T05:25:42.300Z,1.07
2023-03-31T05:28:12.353Z,1.00
2023-03-31T05:30:39.444Z,1.10
2023-03-31T05:33:06.733Z,1.00
2023-03-31T05:35:33.826Z,1.17
2023-03-31T05:38:00.940Z,0.80
2023-03-31T05:40:28.047Z,1.17
2023-03-31T05:42:55.104Z,0.90
2023-03-31T05:45:22.176Z,1.00
2023-03-31T05:47:49.286Z,0.83
2023-03-31T05:50:16.474Z,0.70
2023-03-31T05:52:43.606Z,1.10
2023-03-31T05:55:10.841Z,0.70
2023-03-31T05:57:37.895Z,1.07
2023-03-31T06:00:06.315Z,0.97
2023-03-31T06:02:34.007Z,1.10
2023-03-31T06:05:01.291Z,0.83
2023-03-31T06:07:28.416Z,1.00
2023-03-31T06:09:55.594Z,0.83
2023-03-31T06:12:22.714Z,0.73
2023-03-31T06:14:49.847Z,1.10
2023-03-31T06:17:16.907Z,1.00
2023-03-31T06:19:44.061Z,0.80
2023-03-31T06:22:11.151Z,0.87
2023-03-31T06:24:38.245Z,0.70
2023-03-31T06:27:06.864Z,0.80
2023-03-31T06:29:33.986Z,0.90
2023-03-31T06:32:01.475Z,0.70
2023-03-31T06:34:28.606Z,0.60
2023-03-31T06:36:55.720Z,0.60
2023-03-31T06:39:22.777Z,0.57
2023-03-31T06:41:49.909Z,0.80
2023-03-31T06:44:19.228Z,0.90
2023-03-31T06:46:46.566Z,0.80
2023-03-31T06:49:13.875Z,0.60
2023-03-31T06:51:40.946Z,0.70
2023-03-31T06:54:08.046Z,0.70
2023-03-31T06:56:35.167Z,0.80
2023-03-31T06:59:02.238Z,0.50
2023-03-31T07:01:29.505Z,0.70
2023-03-31T07:03:56.625Z,0.63
2023-03-31T07:06:23.786Z,1.00
2023-03-31T07:08:50.936Z,1.20
2023-03-31T07:11:21.099Z,1.13
2023-03-31T07:13:48.672Z,0.87
2023-03-31T07:16:15.873Z,1.00
2023-03-31T07:18:43.226Z,1.23
2023-03-31T07:21:10.619Z,1.03
2023-03-31T07:23:38.498Z,1.00
2023-03-31T07:26:06.444Z,0.63
2023-03-31T07:28:33.639Z,0.90
2023-03-31T07:31:00.822Z,0.70
2023-03-31T07:33:28.063Z,0.80
2023-03-31T07:36:08.338Z,1.00
2023-03-31T07:38:38.666Z,0.93
2023-03-31T07:41:09.700Z,1.10
2023-03-31T07:43:37.378Z,0.90
2023-03-31T07:46:06.118Z,1.03
2023-03-31T07:48:33.802Z,1.00
2023-03-31T07:51:01.518Z,1.07
2023-03-31T07:53:28.649Z,1.03
2023-03-31T07:55:56.124Z,0.90
2023-03-31T07:58:23.196Z,1.10
2023-03-31T08:00:50.323Z,1.00
2023-03-31T08:03:17.496Z,1.10
2023-03-31T08:05:44.653Z,1.30
2023-03-31T08:08:11.734Z,1.00
2023-03-31T08:10:38.821Z,1.00
2023-03-31T08:13:05.879Z,1.17
2023-03-31T08:15:33.076Z,0.90
2023-03-31T08:18:00.370Z,1.47
2023-03-31T08:20:27.604Z,1.13
2023-03-31T08:22:54.671Z,1.30
2023-03-31T08:25:21.946Z,0.80
2023-03-31T08:27:50.952Z,0.90
2023-03-31T08:30:19.261Z,1.00
2023-03-31T08:32:47.188Z,1.13
2023-03-31T08:35:14.766Z,1.10
2023-03-31T08:37:41.910Z,0.90
2023-03-31T08:40:12.507Z,1.00
2023-03-31T08:42:39.533Z,1.00
2023-03-31T08:45:18.390Z,1.00
2023-03-31T08:47:48.102Z,0.80
2023-03-31T08:50:17.486Z,0.90
2023-03-31T08:52:57.782Z,1.10
2023-03-31T08:55:28.060Z,1.00
2023-03-31T08:58:02.234Z,0.87
2023-03-31T09:00:31.371Z,0.90
2023-03-31T09:03:05.720Z,0.97
2023-03-31T09:06:13.012Z,0.73
2023-03-31T09:08:42.298Z,0.93
2023-03-31T09:11:09.455Z,0.90
2023-03-31T09:13:52.108Z,1.00
2023-03-31T09:16:23.216Z,1.03
2023-03-31T09:18:51.303Z,0.80
2023-03-31T09:21:47.524Z,1.17
2023-03-31T09:24:20.992Z,0.77
2023-03-31T09:26:48.164Z,0.50
2023-03-31T09:29:20.778Z,0.50
2023-03-31T09:31:48.409Z,1.00
2023-03-31T09:34:17.562Z,1.00
2023-03-31T09:36:44.767Z,0.57
2023-03-31T09:39:14.319Z,0.93
2023-03-31T09:41:46.178Z,0.63
2023-03-31T09:44:21.366Z,0.90
2023-03-31T09:46:48.470Z,0.70
2023-03-31T09:49:18.809Z,0.80
2023-03-31T09:51:47.540Z,0.70
2023-03-31T09:54:16.894Z,0.70
2023-03-31T09:56:44.105Z,0.93
2023-03-31T09:59:16.799Z,0.83
2023-03-31T10:01:45.622Z,0.77
2023-03-31T10:04:18.782Z,0.80
2023-03-31T10:06:45.985Z,0.60
2023-03-31T10:09:13.259Z,0.80
2023-03-31T10:11:40.814Z,0.90
2023-03-31T10:14:13.601Z,0.73
2023-03-31T10:16:59.366Z,0.63
2023-03-31T10:19:30.292Z,1.13
2023-03-31T10:22:05.905Z,0.73
2023-03-31T10:24:43.954Z,0.93
2023-03-31T10:27:20.092Z,0.80
2023-03-31T10:29:47.433Z,0.70
2023-03-31T10:32:29.237Z,0.77
2023-03-31T10:34:57.511Z,0.60
2023-03-31T10:37:25.742Z,0.80
2023-03-31T10:40:11.772Z,0.83
2023-03-31T10:42:39.107Z,1.20
2023-03-31T10:45:36.402Z,0.80
2023-03-31T10:48:04.967Z,0.80
2023-03-31T10:50:36.575Z,0.63
2023-03-31T10:53:07.336Z,0.87
2023-03-31T10:55:42.138Z,0.90
2023-03-31T10:58:12.033Z,0.70
2023-03-31T11:00:51.422Z,0.77
2023-03-31T11:03:32.197Z,1.20
2023-03-31T11:06:05.331Z,1.90
2023-03-31T11:08:59.773Z,1.10
2023-03-31T11:11:30.101Z,1.10
2023-03-31T11:13:57.170Z,1.20
2023-03-31T11:16:43.321Z,1.20
2023-03-31T11:19:22.565Z,1.00
2023-03-31T11:22:13.295Z,1.07
2023-03-31T11:24:55.533Z,1.30
2023-03-31T11:27:27.904Z,1.40
2023-03-31T11:29:54.946Z,1.30
2023-03-31T11:32:37.143Z,1.47
2023-03-31T11:35:07.336Z,1.63
2023-03-31T11:37:35.428Z,1.20
2023-03-31T11:40:41.169Z,1.73
2023-03-31T11:43:12.605Z,1.63
2023-03-31T11:45:42.103Z,1.60
2023-03-31T11:48:18.610Z,1.80
2023-03-31T11:50:47.562Z,1.60
2023-03-31T11:53:33.071Z,1.77
2023-03-31T11:56:02.204Z,1.57
2023-03-31T11:58:37.810Z,1.73
2023-03-31T12:01:04.938Z,1.70
2023-03-31T12:03:34.904Z,1.60
2023-03-31T12:06:17.122Z,1.70
2023-03-31T12:08:49.934Z,1.70
2023-03-31T12:11:27.787Z,1.60
2023-03-31T12:13:57.701Z,1.40
2023-03-31T12:16:27.893Z,1.50
2023-03-31T12:19:14.361Z,1.63
2023-03-31T12:21:44.242Z,1.50
2023-03-31T12:24:14.368Z,1.80
2023-03-31T12:27:01.724Z,1.47
2023-03-31T12:29:31.996Z,1.50
2023-03-31T12:32:00.619Z,1.60
2023-03-31T12:34:28.733Z,1.30
2023-03-31T12:37:11.089Z,1.63
2023-03-31T12:39:38.187Z,1.50
2023-03-31T12:42:13.230Z,1.57
2023-03-31T12:44:52.497Z,1.50
2023-03-31T12:47:36.540Z,1.50
2023-03-31T12:50:18.841Z,1.47
2023-03-31T12:52:54.732Z,1.57
2023-03-31T12:55:33.869Z,1.40
2023-03-31T12:58:19.772Z,1.60
2023-03-31T13:01:06.636Z,1.40
2023-03-31T13:03:45.381Z,1.60
2023-03-31T13:06:32.824Z,1.60
2023-03-31T13:09:08.238Z,1.50
2023-03-31T13:11:38.194Z,2.03
2023-03-31T13:14:07.773Z,1.80
2023-03-31T13:16:36.815Z,1.70
2023-03-31T13:19:04.083Z,1.70
2023-03-31T13:21:31.743Z,2.10
2023-03-31T13:24:03.087Z,1.90
2023-03-31T13:26:33.251Z,2.07
2023-03-31T13:29:20.177Z,2.50
2023-03-31T13:32:02.913Z,2.13
2023-03-31T13:34:35.109Z,2.40
2023-03-31T13:37:11.141Z,2.20
2023-03-31T13:39:38.220Z,2.30
2023-03-31T13:42:05.334Z,2.60
2023-03-31T13:44:51.415Z,2.93
2023-03-31T13:47:41.223Z,2.67
2023-03-31T13:50:11.359Z,2.00
2023-03-31T13:52:44.431Z,2.30
2023-03-31T13:55:23.589Z,1.80
2023-03-31T13:58:24.691Z,1.97
2023-03-31T14:00:59.466Z,1.30
2023-03-31T14:03:45.183Z,1.20
2023-03-31T14:06:20.757Z,1.13
2023-03-31T14:08:55.612Z,1.10
2023-03-31T14:11:24.227Z,1.00
2023-03-31T14:14:06.913Z,1.00
2023-03-31T14:16:39.002Z,0.90
2023-03-31T14:19:29.149Z,0.73
2023-03-31T14:22:08.376Z,0.90
2023-03-31T14:24:41.406Z,0.80
2023-03-31T14:27:20.591Z,0.70
2023-03-31T14:29:53.632Z,0.73
2023-03-31T14:32:21.057Z,0.70
2023-03-31T14:34:54.615Z,0.77
2023-03-31T14:37:22.812Z,0.70
2023-03-31T14:39:56.327Z,0.90
2023-03-31T14:42:38.081Z,0.70
2023-03-31T14:45:09.891Z,0.73
2023-03-31T14:47:37.036Z,0.80
2023-03-31T14:50:08.953Z,0.80
2023-03-31T14:52:36.084Z,0.67
2023-03-31T14:55:03.220Z,0.90
2023-03-31T14:57:32.985Z,0.90
2023-03-31T15:00:02.265Z,0.50
2023-03-31T15:02:34.333Z,0.73
2023-03-31T15:05:09.668Z,0.53
2023-03-31T15:07:37.499Z,0.60
2023-03-31T15:10:05.504Z,0.70
2023-03-31T15:12:32.751Z,0.60
2023-03-31T15:15:03.971Z,0.60
2023-03-31T15:17:41.295Z,0.73
2023-03-31T15:20:28.065Z,0.90
2023-03-31T15:22:58.672Z,0.80
2023-03-31T15:25:27.907Z,0.90
2023-03-31T15:27:58.933Z,0.90
2023-03-31T15:30:27.000Z,0.60
2023-03-31T15:35:41.504Z,1.00
2023-03-31T15:38:12.309Z,0.70
2023-03-31T15:40:40.997Z,0.93
2023-03-31T15:43:26.953Z,0.90
2023-03-31T15:45:54.832Z,0.90
2023-03-31T15:48:34.306Z,0.87
2023-03-31T15:51:03.533Z,0.97
2023-03-31T15:53:32.448Z,0.97
2023-03-31T15:56:00.340Z,1.17
2023-03-31T15:58:46.148Z,1.37
2023-03-31T16:01:15.690Z,0.87
2023-03-31T16:03:42.913Z,0.97
2023-03-31T16:06:11.182Z,1.60
2023-03-31T16:08:42.766Z,1.83
2023-03-31T16:11:14.251Z,2.23
2023-03-31T16:13:44.401Z,2.27
2023-03-31T16:16:13.229Z,1.50
2023-03-31T16:18:42.872Z,3.10
2023-03-31T16:21:10.592Z,3.30
2023-03-31T16:23:41.058Z,2.83
2023-03-31T16:26:08.639Z,2.40
2023-03-31T16:28:36.808Z,1.60
2023-03-31T16:31:05.314Z,1.80
2023-03-31T16:33:52.434Z,3.40
2023-03-31T16:36:19.574Z,2.87
2023-03-31T16:38:46.926Z,2.10
2023-03-31T16:41:15.795Z,2.40
2023-03-31T16:43:45.241Z,2.10
2023-03-31T16:46:12.510Z,1.83
2023-03-31T16:48:39.660Z,1.63
2023-03-31T16:51:06.935Z,1.20
2023-03-31T16:53:35.783Z,1.30
2023-03-31T16:56:03.251Z,1.00
2023-03-31T16:58:30.538Z,1.10
2023-03-31T17:00:58.626Z,1.03
2023-03-31T17:03:26.732Z,1.20
2023-03-31T17:05:59.188Z,1.00
2023-03-31T17:08:27.804Z,1.00
2023-03-31T17:11:07.088Z,1.23
2023-03-31T17:13:34.461Z,1.30
2023-03-31T17:16:16.410Z,0.93
2023-03-31T17:18:46.326Z,1.13
2023-03-31T17:21:14.999Z,1.10
2023-03-31T17:23:42.514Z,1.30
2023-03-31T17:26:09.899Z,1.27
2023-03-31T17:28:37.639Z,1.50
2023-03-31T17:31:14.791Z,1.60
2023-03-31T17:33:42.396Z,1.90
2023-03-31T17:36:09.518Z,1.73
2023-03-31T17:38:36.806Z,2.20
2023-03-31T17:41:04.952Z,2.70
2023-03-31T17:43:32.726Z,2.37
2023-03-31T17:46:04.262Z,2.17
2023-03-31T17:48:33.956Z,1.90
2023-03-31T17:51:08.702Z,1.90
2023-03-31T17:53:36.249Z,2.10
2023-03-31T17:56:04.235Z,1.80
2023-03-31T17:58:32.180Z,1.20
2023-03-31T18:00:59.489Z,1.70
2023-03-31T18:03:29.835Z,1.67
2023-03-31T18:05:57.048Z,1.50
2023-03-31T18:08:24.153Z,1.00
2023-03-31T18:10:51.446Z,1.17
2023-03-31T18:13:18.521Z,1.47
2023-03-31T18:15:52.395Z,1.40
2023-03-31T18:18:20.625Z,1.13
2023-03-31T18:20:47.894Z,1.53
2023-03-31T18:23:15.014Z,1.00
2023-03-31T18:25:46.234Z,1.30
2023-03-31T18:28:18.748Z,1.37
2023-03-31T18:30:47.186Z,1.30
2023-03-31T18:33:14.817Z,1.07
2023-03-31T18:35:42.237Z,1.07
2023-03-31T18:38:09.781Z,1.40
2023-03-31T18:40:37.627Z,1.60
2023-03-31T18:43:04.979Z,1.70
2023-03-31T18:45:32.941Z,1.50
2023-03-31T18:48:00.359Z,1.90
2023-03-31T18:50:27.673Z,1.83
2023-03-31T18:52:54.968Z,1.73
2023-03-31T18:55:22.303Z,1.80
2023-03-31T18:57:49.585Z,1.70
2023-03-31T19:00:17.255Z,1.43
2023-03-31T19:02:44.588Z,1.83
2023-03-31T19:05:11.814Z,2.03
2023-03-31T19:07:39.507Z,2.00
2023-03-31T19:10:07.020Z,2.17
2023-03-31T19:12:34.108Z,2.40
2023-03-31T19:15:01.413Z,2.10
2023-03-31T19:17:28.554Z,2.00
2023-03-31T19:19:55.714Z,2.23
2023-03-31T19:22:22.810Z,1.97
2023-03-31T19:24:49.995Z,1.83
2023-03-31T19:27:17.151Z,1.53
2023-03-31T19:29:44.238Z,2.07
2023-03-31T19:32:11.781Z,1.40
2023-03-31T19:34:39.052Z,1.40
2023-03-31T19:37:06.599Z,0.73
2023-03-31T19:39:33.684Z,0.77
2023-03-31T19:42:02.059Z,1.30
2023-03-31T19:44:29.637Z,0.87
2023-03-31T19:46:58.550Z,0.93
2023-03-31T19:49:25.809Z,0.67
2023-03-31T19:51:53.267Z,0.87
2023-03-31T19:54:20.404Z,0.43
2023-03-31T19:56:49.047Z,0.60
2023-03-31T19:59:16.312Z,0.63
2023-03-31T20:01:43.498Z,0.53
2023-03-31T20:04:12.133Z,0.80
2023-03-31T20:06:39.376Z,0.80
2023-03-31T20:09:06.537Z,0.87
2023-03-31T20:11:33.811Z,0.53
2023-03-31T20:14:01.247Z,0.60
2023-03-31T20:16:29.690Z,0.80
2023-03-31T20:19:02.054Z,0.70
2023-03-31T20:21:29.940Z,0.80
2023-03-31T20:23:57.282Z,0.80
2023-03-31T20:26:26.321Z,0.70
2023-03-31T20:28:55.790Z,0.60
2023-03-31T20:31:24.226Z,0.70
2023-03-31T20:33:52.174Z,0.53
2023-03-31T20:36:20.783Z,0.50
2023-03-31T20:38:50.944Z,0.50
2023-03-31T20:41:18.808Z,0.60
2023-03-31T20:43:46.111Z,0.70
2023-03-31T20:46:13.277Z,0.80
2023-03-31T20:48:45.638Z,0.40
2023-03-31T20:51:14.737Z,0.57
2023-03-31T20:53:45.875Z,0.40
2023-03-31T20:56:14.282Z,0.50
2023-03-31T20:58:43.989Z,0.50
2023-03-31T21:01:12.025Z,0.60
2023-03-31T21:03:39.247Z,0.57
2023-03-31T21:06:11.123Z,0.63
2023-03-31T21:08:39.099Z,0.57
2023-03-31T21:11:06.416Z,0.40
2023-03-31T21:13:34.065Z,0.40
2023-03-31T21:16:01.529Z,0.50
2023-03-31T21:18:32.160Z,0.37
2023-03-31T21:21:00.705Z,0.60
2023-03-31T21:23:28.726Z,0.40
2023-03-31T21:25:56.821Z,0.47
2023-03-31T21:28:25.734Z,0.50
2023-03-31T21:30:54.194Z,0.53
2023-03-31T21:33:22.189Z,0.50
2023-03-31T21:35:49.630Z,0.60
2023-03-31T21:38:16.841Z,0.83
2023-03-31T21:40:44.022Z,0.60
2023-03-31T21:43:11.197Z,0.60
2023-03-31T21:45:38.793Z,0.87
2023-03-31T21:48:08.022Z,0.70
2023-03-31T21:50:38.310Z,0.63
2023-03-31T21:53:05.939Z,0.60
2023-03-31T21:55:33.713Z,0.50
2023-03-31T21:58:01.358Z,1.00
2023-03-31T22:00:28.929Z,0.60
2023-03-31T22:03:16.208Z,0.60
2023-03-31T22:05:43.012Z,0.60
2023-03-31T22:08:10.293Z,0.50
2023-03-31T22:10:37.841Z,0.60
2023-03-31T22:13:04.888Z,0.70
2023-03-31T22:15:32.160Z,0.70
2023-03-31T22:17:59.472Z,0.30
2023-03-31T22:20:26.978Z,0.50
2023-03-31T22:22:54.056Z,0.70
2023-03-31T22:25:21.230Z,0.40
2023-03-31T22:27:48.393Z,0.53
2023-03-31T22:30:15.672Z,0.63
2023-03-31T22:32:42.806Z,0.60
2023-03-31T22:35:10.899Z,0.60
2023-03-31T22:37:37.994Z,0.60
2023-03-31T22:40:05.976Z,0.37
2023-03-31T22:42:33.592Z,0.60
2023-03-31T22:45:01.088Z,0.30
2023-03-31T22:47:28.278Z,0.33
2023-03-31T22:49:55.424Z,0.30
2023-03-31T22:52:22.809Z,0.40
2023-03-31T22:54:49.965Z,0.40
2023-03-31T22:57:17.545Z,0.40
2023-03-31T22:59:44.696Z,0.57
2023-03-31T23:02:11.768Z,0.50
2023-03-31T23:04:38.888Z,0.47
2023-03-31T23:07:06.344Z,0.53
2023-03-31T23:09:33.672Z,0.30
2023-03-31T23:12:01.025Z,0.30
2023-03-31T23:14:28.331Z,0.40
2023-03-31T23:16:55.888Z,0.40
2023-03-31T23:19:23.226Z,0.40
2023-03-31T23:21:52.493Z,0.20
2023-03-31T23:24:21.264Z,0.40
2023-03-31T23:26:48.386Z,0.60
2023-03-31T23:29:15.650Z,0.40
2023-03-31T23:31:42.861Z,0.30
2023-03-31T23:34:11.315Z,0.43
2023-03-31T23:36:38.396Z,0.50
2023-03-31T23:39:06.725Z,0.40
2023-03-31T23:41:34.664Z,0.40
2023-03-31T23:44:01.864Z,0.20
2023-03-31T23:46:29.687Z,0.50
2023-03-31T23:48:57.135Z,0.60
2023-03-31T23:51:24.676Z,0.47
2023-03-31T23:53:52.080Z,0.50
2023-03-31T23:56:19.218Z,0.37
2023-03-31T23:58:47.041Z,0.50
